Time;durP1;ratioP1;P1;durP2;ratioP2;P2;SDS_P1;SDS_P2;PMS_P1;PMS_P2;Temp;Humidity;BMP_temperature;BMP_pressure;BME280_temperature;BME280_humidity;BME280_pressure;Samples;Min_cycle;Max_cycle;Signal;HPM_P1;HPM_P2
2022/10/04 00:02:03;;;;;;;16.32;6.30;;;;;;;9.51;84.26;97224.34;1721995;83;26440;-86
2022/10/04 00:04:47;;;;;;;13.10;6.58;;;;;;;9.52;84.28;97223.83;1719676;83;27352;-86
2022/10/04 00:07:25;;;;;;;13.03;6.20;;;;;;;9.53;84.31;97229.01;1706354;83;26326;-86
2022/10/04 00:10:02;;;;;;;11.85;5.65;;;;;;;9.55;84.26;97222.03;1722009;83;25759;-86
2022/10/04 00:12:34;;;;;;;12.47;6.22;;;;;;;9.56;84.28;97218.30;1721859;83;25924;-85
2022/10/04 00:15:12;;;;;;;9.33;5.95;;;;;;;9.58;84.29;97217.59;1721896;83;25974;-84
2022/10/04 00:17:39;;;;;;;12.93;5.90;;;;;;;9.55;84.28;97218.82;1700007;83;27238;-86
2022/10/04 00:20:27;;;;;;;9.20;5.97;;;;;;;9.56;84.29;97219.14;1721985;83;25710;-85
2022/10/04 00:23:25;;;;;;;11.28;6.72;;;;;;;9.56;84.34;97216.44;1721698;82;25758;-84
2022/10/04 00:26:01;;;;;;;12.93;6.40;;;;;;;9.55;84.29;97217.99;1707509;83;26226;-83
2022/10/04 00:28:39;;;;;;;11.90;6.15;;;;;;;9.52;84.30;97212.53;1720764;83;25688;-84
2022/10/04 00:31:17;;;;;;;12.20;6.15;;;;;;;9.52;84.41;97218.44;1721389;83;27341;-84
2022/10/04 00:33:50;;;;;;;11.03;6.08;;;;;;;9.51;84.43;97217.61;1720799;83;25828;-85
2022/10/04 00:36:31;;;;;;;12.98;6.17;;;;;;;9.55;84.40;97210.73;1721464;83;25798;-82
2022/10/04 00:39:11;;;;;;;14.68;6.72;;;;;;;9.59;84.39;97210.64;1721519;83;25726;-84
2022/10/04 00:41:49;;;;;;;15.43;5.97;;;;;;;9.61;84.35;97205.88;1721584;83;25659;-85
2022/10/04 00:44:25;;;;;;;10.30;5.90;;;;;;;9.57;84.33;97205.97;1713748;83;27361;-84
2022/10/04 00:46:54;;;;;;;13.85;6.65;;;;;;;9.56;84.27;97204.83;1721044;83;25420;-84
2022/10/04 00:49:25;;;;;;;11.20;6.40;;;;;;;9.58;84.37;97206.80;1721352;83;25717;-84
2022/10/04 00:52:21;;;;;;;12.93;5.97;;;;;;;9.60;84.36;97206.91;1721446;83;25855;-84
2022/10/04 00:54:59;;;;;;;12.53;5.20;;;;;;;9.59;84.24;97200.38;1721151;83;26118;-84
2022/10/04 00:57:31;;;;;;;9.80;5.47;;;;;;;9.58;84.23;97204.11;1721143;83;28270;-83
2022/10/04 01:00:09;;;;;;;12.18;5.37;;;;;;;9.59;84.20;97206.59;1721023;83;32557;-84
2022/10/04 01:02:44;;;;;;;8.50;4.53;;;;;;;9.56;84.10;97212.91;1717064;83;25908;-83
2022/10/04 01:05:37;;;;;;;10.90;4.45;;;;;;;9.53;83.95;97212.02;1721357;83;26141;-84
2022/10/04 01:08:12;;;;;;;;;;;;;;;9.50;83.92;97207.86;1723979;83;25227;-84
2022/10/04 01:10:46;;;;;;;8.13;3.33;;;;;;;9.46;83.84;97203.92;1721304;83;28102;-84
2022/10/04 01:13:30;;;;;;;8.40;3.08;;;;;;;9.39;83.77;97200.42;1721141;83;25756;-84
2022/10/04 01:16:22;;;;;;;8.55;3.30;;;;;;;9.38;83.65;97195.55;1721387;83;25770;-83
2022/10/04 01:18:49;;;;;;;5.97;3.02;;;;;;;9.39;83.58;97201.77;1694414;83;25826;-84
2022/10/04 01:21:26;;;;;;;9.05;3.40;;;;;;;9.40;83.48;97203.42;1721296;83;25811;-84
2022/10/04 01:24:01;;;;;;;4.70;3.12;;;;;;;9.40;83.41;97204.77;1721249;82;27418;-84
2022/10/04 01:26:35;;;;;;;5.95;3.27;;;;;;;9.38;83.33;97208.19;1721127;83;25764;-84
2022/10/04 01:29:10;;;;;;;4.85;3.05;;;;;;;9.39;83.31;97204.45;1720350;83;25930;-83
2022/10/04 01:31:47;;;;;;;7.95;2.92;;;;;;;9.38;83.33;97198.24;1721505;83;25655;-84
2022/10/04 01:34:18;;;;;;;4.40;2.98;;;;;;;9.36;83.31;97203.52;1721298;83;25795;-84
2022/10/04 01:36:47;;;;;;;6.12;2.85;;;;;;;9.34;83.35;97203.72;1721431;83;27313;-85
2022/10/04 01:39:16;;;;;;;5.97;3.15;;;;;;;9.30;83.46;97201.64;1721264;83;25759;-84
2022/10/04 01:41:55;;;;;;;6.17;3.27;;;;;;;9.28;83.53;97199.70;1721302;83;25796;-84
2022/10/04 01:44:46;;;;;;;7.30;3.33;;;;;;;9.22;83.50;97198.66;1721469;83;26008;-84
2022/10/04 01:47:21;;;;;;;7.42;3.45;;;;;;;9.18;83.69;97199.27;1721399;83;25915;-85
2022/10/04 01:49:50;;;;;;;9.00;3.87;;;;;;;9.13;83.83;97195.03;1694620;83;28270;-85
2022/10/04 01:52:25;;;;;;;7.83;3.70;;;;;;;9.15;83.98;97187.59;1721324;82;26384;-84
2022/10/04 01:55:00;;;;;;;8.25;4.25;;;;;;;9.17;83.92;97192.25;1721398;83;25594;-84
2022/10/04 01:57:34;;;;;;;10.82;4.37;;;;;;;9.19;83.98;97196.37;1721142;83;26494;-85
2022/10/04 02:00:09;;;;;;;7.10;4.00;;;;;;;9.24;83.97;97193.06;1721412;83;25769;-85
2022/10/04 02:03:06;;;;;;;7.70;4.22;;;;;;;9.27;83.89;97191.31;1721523;83;27417;-85
2022/10/04 02:05:41;;;;;;;6.72;4.05;;;;;;;9.27;83.95;97194.00;1721273;83;26190;-84
2022/10/04 02:08:12;;;;;;;11.85;4.80;;;;;;;9.23;84.01;97194.92;1721689;83;25780;-85
2022/10/04 02:10:39;;;;;;;13.75;4.37;;;;;;;9.24;84.03;97189.02;1720641;83;25736;-85
2022/10/04 02:13:13;;;;;;;8.28;4.60;;;;;;;9.25;84.06;97182.09;1721504;83;25714;-85
2022/10/04 02:15:41;;;;;;;6.87;4.40;;;;;;;9.27;84.07;97189.97;1721203;83;27417;-84
2022/10/04 02:18:16;;;;;;;9.78;4.10;;;;;;;9.27;84.10;97202.08;1721451;83;25753;-84
2022/10/04 02:20:44;;;;;;;6.87;4.47;;;;;;;9.25;84.00;97205.50;1721535;83;25904;-85
2022/10/04 02:23:12;;;;;;;6.28;3.60;;;;;;;9.21;84.01;97206.94;1721468;83;26385;-84
2022/10/04 02:25:39;;;;;;;6.00;3.92;;;;;;;9.18;84.08;97212.73;1721642;82;25994;-84
2022/10/04 02:28:12;;;;;;;7.87;3.80;;;;;;;9.12;84.10;97205.49;1721946;83;28229;-87
2022/10/04 02:32:56;;;;;;;7.30;3.70;;;;;;;9.13;84.20;97199.08;1721952;82;25784;-85
2022/10/04 02:33:15;;;;;;;7.17;3.52;;;;;;;9.12;84.06;97200.11;1721826;82;25825;-85
2022/10/04 02:35:47;;;;;;;6.20;3.00;;;;;;;9.13;84.04;97196.38;1721945;83;25844;-85
2022/10/04 02:38:19;;;;;;;6.97;3.35;;;;;;;9.11;83.91;97203.84;1722172;83;26003;-85
2022/10/04 02:41:03;;;;;;;6.67;3.55;;;;;;;9.11;83.96;97201.14;1722289;83;27322;-84
2022/10/04 02:43:54;;;;;;;6.20;3.30;;;;;;;9.11;83.92;97198.45;1709708;82;25872;-84
2022/10/04 02:46:28;;;;;;;5.90;3.20;;;;;;;9.10;83.98;97202.17;1722031;83;25881;-83
2022/10/04 02:49:03;;;;;;;8.78;3.58;;;;;;;9.11;84.04;97205.18;1714838;83;25904;-84
2022/10/04 02:51:40;;;;;;;7.30;3.42;;;;;;;9.11;84.10;97211.91;1721850;82;26189;-84
2022/10/04 02:54:17;;;;;;;9.23;3.67;;;;;;;9.09;84.15;97211.28;1722128;83;27437;-84
2022/10/04 02:56:44;;;;;;;7.87;3.52;;;;;;;9.10;84.18;97214.29;1673826;83;25897;-84
2022/10/04 02:59:15;;;;;;;5.28;3.40;;;;;;;9.05;84.10;97220.83;1721915;82;25858;-85
2022/10/04 03:01:56;;;;;;;5.92;3.50;;;;;;;9.02;84.17;97226.94;1722092;82;25697;-84
2022/10/04 03:04:38;;;;;;;7.22;3.40;;;;;;;9.00;84.25;97221.44;1722252;83;25710;-85
2022/10/04 03:07:08;;;;;;;7.30;3.58;;;;;;;8.99;84.35;97221.95;1721932;83;33201;-85
2022/10/04 03:09:37;;;;;;;9.00;3.70;;;;;;;9.00;84.37;97222.78;1721730;83;25904;-86
2022/10/04 03:12:05;;;;;;;9.33;3.62;;;;;;;8.99;84.29;97218.43;1697131;83;25747;-84
2022/10/04 03:14:32;;;;;;;6.90;3.90;;;;;;;8.98;84.25;97222.16;1722123;83;25670;-84
2022/10/04 03:17:03;;;;;;;7.37;3.87;;;;;;;8.96;84.28;97214.28;1721941;83;25862;-84
2022/10/04 03:19:31;;;;;;;9.58;3.27;;;;;;;8.97;84.23;97219.98;1722067;83;27520;-85
2022/10/04 03:22:08;;;;;;;8.10;3.55;;;;;;;8.98;84.18;97220.81;1721773;83;25698;-85
2022/10/04 03:24:40;;;;;;;7.55;2.35;;;;;;;8.95;84.18;97217.17;1721523;82;25824;-86
2022/10/04 03:27:12;;;;;;;7.33;2.85;;;;;;;8.92;84.01;97223.82;1717356;83;26095;-89
2022/10/04 03:29:43;;;;;;;5.43;2.10;;;;;;;8.93;83.80;97217.92;1721478;83;25804;-85
2022/10/04 03:32:14;;;;;;;6.85;2.20;;;;;;;8.91;83.63;97222.16;1721467;83;27347;-85
2022/10/04 03:34:45;;;;;;;6.10;2.30;;;;;;;8.92;83.59;97215.75;1721344;83;25864;-86
2022/10/04 03:37:16;;;;;;;5.80;2.15;;;;;;;8.90;83.57;97219.67;1710186;83;26206;-84
2022/10/04 03:39:46;;;;;;;5.75;2.33;;;;;;;8.89;83.58;97225.57;1721458;83;25754;-84
2022/10/04 03:42:17;;;;;;;5.08;2.45;;;;;;;8.87;83.54;97216.87;1721175;83;25757;-85
2022/10/04 03:44:46;;;;;;;7.05;2.60;;;;;;;8.86;83.57;97217.90;1721193;83;27382;-85
2022/10/04 03:47:17;;;;;;;4.53;2.35;;;;;;;8.83;83.56;97226.37;1721188;83;25983;-84
2022/10/04 03:49:47;;;;;;;6.95;2.98;;;;;;;8.81;83.56;97226.29;1721382;83;25811;-85
2022/10/04 03:52:22;;;;;;;6.78;2.70;;;;;;;8.79;83.63;97230.53;1721575;83;26524;-84
2022/10/04 03:54:52;;;;;;;7.22;2.95;;;;;;;8.77;83.75;97224.52;1721499;83;25760;-85
2022/10/04 03:57:19;;;;;;;3.95;2.77;;;;;;;8.75;83.87;97229.27;1721296;83;28175;-85
2022/10/04 03:59:46;;;;;;;4.58;2.85;;;;;;;8.75;83.94;97231.95;1721411;83;25763;-85
2022/10/04 04:02:39;;;;;;;6.22;3.00;;;;;;;8.75;84.03;97238.69;1721377;83;25748;-85
2022/10/04 04:05:25;;;;;;;7.40;2.92;;;;;;;8.71;84.03;97237.42;1721452;83;25772;-84
2022/10/04 04:08:22;;;;;;;7.22;2.98;;;;;;;8.66;84.14;97244.78;1721447;83;25773;-85
2022/10/04 04:10:53;;;;;;;5.22;3.47;;;;;;;8.63;84.17;97243.00;1721461;83;28149;-85
2022/10/04 04:13:34;;;;;;;7.83;4.40;;;;;;;8.58;84.21;97244.11;1721221;83;25905;-84
2022/10/04 04:16:01;;;;;;;9.78;4.15;;;;;;;8.56;84.30;97241.66;1721026;83;25761;-85
2022/10/04 04:18:33;;;;;;;11.33;4.45;;;;;;;8.57;84.43;97235.76;1721344;82;26360;-85
2022/10/04 04:21:02;;;;;;;12.33;5.50;;;;;;;8.56;84.51;97240.83;1721398;83;25781;-84
2022/10/04 04:23:49;;;;;;;9.83;5.80;;;;;;;8.52;84.54;97237.70;1721367;83;27449;-85
2022/10/04 04:26:44;;;;;;;9.95;5.53;;;;;;;8.51;84.53;97240.59;1720257;83;26357;-84
2022/10/04 04:29:28;;;;;;;9.63;4.10;;;;;;;8.54;84.58;97244.23;1721019;83;26270;-84
2022/10/04 04:32:23;;;;;;;8.93;4.35;;;;;;;8.58;84.52;97248.15;1717709;83;25808;-84
2022/10/04 04:34:55;;;;;;;10.72;3.98;;;;;;;8.57;84.47;97247.87;1717861;83;25820;-84
2022/10/04 04:37:21;;;;;;;6.83;4.53;;;;;;;8.55;84.42;97245.89;1688244;84;27514;-84
2022/10/04 04:39:55;;;;;;;6.53;3.90;;;;;;;8.51;84.43;97247.31;1717836;83;25820;-83
2022/10/04 04:42:31;;;;;;;5.87;3.37;;;;;;;8.52;84.54;97244.94;1716366;83;25858;-84
2022/10/04 04:45:15;;;;;;;7.35;3.02;;;;;;;8.51;84.56;97256.73;1717934;83;25819;-85
2022/10/04 04:47:49;;;;;;;5.35;3.12;;;;;;;8.54;84.51;97252.30;1687085;84;53859;-85
2022/10/04 04:50:19;;;;;;;7.53;3.20;;;;;;;8.56;84.60;97263.18;1717519;83;27486;-85
2022/10/04 04:53:08;;;;;;;9.93;3.90;;;;;;;8.58;84.62;97261.60;1717418;83;25890;-85
2022/10/04 04:55:43;;;;;;;7.08;3.37;;;;;;;8.57;84.65;97258.08;1717723;83;25776;-85
2022/10/04 04:58:18;;;;;;;6.33;2.80;;;;;;;8.57;84.70;97266.70;1717849;83;25752;-85
2022/10/04 05:00:53;;;;;;;8.05;2.85;;;;;;;8.56;84.71;97270.42;1717884;83;25836;-85
2022/10/04 05:03:20;;;;;;;6.05;3.00;;;;;;;8.59;84.71;97278.06;1685857;84;27396;-84
2022/10/04 05:05:47;;;;;;;8.00;2.72;;;;;;;8.59;84.52;97268.64;1717752;83;25315;-83
2022/10/04 05:08:24;;;;;;;9.45;3.10;;;;;;;8.62;84.55;97272.28;1718507;83;25936;-84
2022/10/04 05:11:17;;;;;;;7.62;3.10;;;;;;;8.65;84.63;97280.80;1721295;83;25757;-84
2022/10/04 05:13:49;;;;;;;9.93;3.40;;;;;;;8.68;84.62;97284.95;1721411;83;25780;-84
2022/10/04 05:16:23;;;;;;;9.10;3.08;;;;;;;8.69;84.56;97279.88;1721628;83;28201;-83
2022/10/04 05:19:07;;;;;;;6.70;2.62;;;;;;;8.70;84.63;97275.30;1721375;83;25925;-83
2022/10/04 05:21:35;;;;;;;4.17;2.60;;;;;;;8.68;84.65;97283.60;1721492;83;26406;-83
2022/10/04 05:24:22;;;;;;;6.55;3.10;;;;;;;8.67;84.50;97285.98;1721414;83;25953;-84
2022/10/04 05:26:53;;;;;;;5.92;3.15;;;;;;;8.68;84.44;97288.98;1721175;83;25951;-83
2022/10/04 05:29:28;;;;;;;8.08;2.50;;;;;;;8.66;84.42;97289.70;1721393;83;27366;-83
2022/10/04 05:32:23;;;;;;;5.47;2.80;;;;;;;8.69;84.53;97301.41;1721176;83;25891;-83
2022/10/04 05:34:50;;;;;;;5.17;2.67;;;;;;;8.70;84.61;97300.86;1721470;83;25714;-83
2022/10/04 05:37:37;;;;;;;8.55;3.95;;;;;;;8.68;84.72;97302.44;1721182;83;26567;-83
2022/10/04 05:40:15;;;;;;;5.65;3.72;;;;;;;8.68;84.75;97309.68;1721094;83;25266;-83
2022/10/04 05:42:45;;;;;;;9.03;4.40;;;;;;;8.68;84.91;97306.47;1721582;83;27371;-84
2022/10/04 05:45:28;;;;;;;7.72;4.65;;;;;;;8.70;85.05;97311.11;1721368;83;25745;-84
2022/10/04 05:47:57;;;;;;;8.45;5.78;;;;;;;8.72;85.13;97307.70;1721878;83;25732;-84
2022/10/04 05:50:39;;;;;;;14.78;6.37;;;;;;;8.71;85.22;97316.81;1721571;83;25645;-84
2022/10/04 05:53:32;;;;;;;7.78;5.65;;;;;;;8.73;85.24;97309.38;1721468;83;26082;-84
2022/10/04 05:56:50;;;;;;;8.40;4.53;;;;;;;8.75;85.37;97312.70;1721172;82;27411;-84
2022/10/04 05:59:40;;;;;;;7.83;5.40;;;;;;;8.71;85.04;97315.47;1721542;83;25287;-83
2022/10/04 06:02:30;;;;;;;14.65;5.70;;;;;;;8.78;85.20;97318.20;1721097;83;25691;-83
2022/10/04 06:05:11;;;;;;;10.88;5.75;;;;;;;8.83;85.22;97328.66;1721635;83;25698;-85
2022/10/04 06:07:51;;;;;;;7.58;5.92;;;;;;;8.84;85.24;97330.83;1721682;83;25729;-85
2022/10/04 06:10:50;;;;;;;8.73;6.33;;;;;;;8.89;85.20;97330.55;1721351;83;28193;-84
2022/10/04 06:13:52;;;;;;;13.75;6.30;;;;;;;8.91;85.20;97332.53;1720871;83;25797;-83
2022/10/04 06:16:53;;;;;;;11.60;6.42;;;;;;;8.91;85.32;97343.30;1721609;83;26351;-85
2022/10/04 06:19:34;;;;;;;15.38;8.88;;;;;;;8.94;85.60;97336.66;1710240;83;25946;-86
2022/10/04 06:22:19;;;;;;;16.42;9.10;;;;;;;8.94;85.70;97338.83;1721633;83;25839;-85
2022/10/04 06:25:03;;;;;;;13.45;7.62;;;;;;;8.97;85.65;97349.72;1721429;83;27394;-84
2022/10/04 06:27:40;;;;;;;14.18;6.90;;;;;;;9.01;85.63;97345.59;1721274;83;25665;-85
2022/10/04 06:30:14;;;;;;;11.57;6.10;;;;;;;9.08;85.66;97349.64;1721537;83;25856;-85
2022/10/04 06:32:55;;;;;;;12.33;6.72;;;;;;;9.12;85.70;97349.56;1721398;83;25725;-84
2022/10/04 06:35:45;;;;;;;15.30;6.55;;;;;;;9.15;85.70;97357.23;1721501;83;25441;-84
2022/10/04 06:38:52;;;;;;;9.75;5.50;;;;;;;9.21;85.79;97350.51;1721282;83;27415;-84
2022/10/04 06:41:37;;;;;;;11.05;5.37;;;;;;;9.25;85.63;97354.98;1721328;83;25850;-84
2022/10/04 06:44:27;;;;;;;11.70;5.72;;;;;;;9.26;85.55;97357.98;1721660;83;25763;-84
2022/10/04 06:47:17;;;;;;;13.55;5.08;;;;;;;9.32;85.62;97363.89;1721706;83;25749;-85
2022/10/04 06:50:07;;;;;;;10.28;4.78;;;;;;;9.37;85.43;97364.12;1721744;83;25716;-86
2022/10/04 06:52:55;;;;;;;10.48;4.33;;;;;;;9.39;85.48;97368.79;1718322;83;27417;-84
2022/10/04 06:55:32;;;;;;;12.28;4.80;;;;;;;9.42;85.28;97368.91;1721012;83;25815;-88
2022/10/04 06:58:41;;;;;;;9.75;4.20;;;;;;;9.45;85.22;97377.91;1720963;83;26356;-85
2022/10/04 07:01:25;;;;;;;10.45;4.17;;;;;;;9.50;85.09;97384.34;1721490;83;25677;-85
2022/10/04 07:04:32;;;;;;;10.20;4.55;;;;;;;9.52;85.07;97390.37;1721401;83;25800;-85
2022/10/04 07:10:31;;;;;;;7.97;3.87;;;;;;;9.62;85.22;97396.19;1663723;86;25842;-85
2022/10/04 07:13:15;;;;;;;11.68;4.53;;;;;;;9.68;85.01;97398.04;1715748;83;25808;-86
2022/10/04 07:16:02;;;;;;;13.83;4.40;;;;;;;9.72;84.85;97403.86;1721575;83;25731;-85
2022/10/04 07:18:37;;;;;;;13.65;5.00;;;;;;;9.75;84.78;97412.38;1721499;83;25753;-85
2022/10/04 07:21:11;;;;;;;11.00;4.28;;;;;;;9.75;84.57;97413.72;1665225;83;27623;-86
2022/10/04 07:23:52;;;;;;;9.88;4.17;;;;;;;9.74;84.48;97417.45;1720333;83;25696;-85
2022/10/04 07:26:48;;;;;;;12.03;4.75;;;;;;;9.72;84.63;97426.25;1721396;82;25943;-85
2022/10/04 07:29:23;;;;;;;9.45;4.47;;;;;;;9.74;84.62;97429.58;1721378;83;25800;-86
2022/10/04 07:32:17;;;;;;;10.05;4.60;;;;;;;9.73;84.61;97429.27;1722076;82;25711;-85
2022/10/04 07:35:11;;;;;;;13.45;5.90;;;;;;;9.78;84.52;97427.83;1721306;83;27442;-85
2022/10/04 07:37:56;;;;;;;13.53;6.25;;;;;;;9.89;84.57;97431.26;1721917;83;25852;-87
2022/10/04 07:41:02;;;;;;;7.35;4.60;;;;;;;9.93;84.43;97434.66;1721475;83;26341;-90
2022/10/04 07:43:33;;;;;;;9.85;4.17;;;;;;;9.96;84.22;97431.56;1722078;83;25756;-89
2022/10/04 07:46:31;;;;;;;9.00;4.55;;;;;;;10.03;84.00;97439.64;1722061;82;27513;-87
2022/10/04 07:48:58;;;;;;;12.13;4.42;;;;;;;10.08;83.93;97429.91;1722065;83;27366;-87
2022/10/04 07:51:51;;;;;;;9.00;4.05;;;;;;;10.17;83.90;97429.17;1721850;83;25724;-86
2022/10/04 07:54:53;;;;;;;;;;;;;;;10.22;83.68;97434.81;1724061;83;25665;-90
2022/10/04 07:57:43;;;;;;;14.45;4.47;;;;;;;10.25;83.44;97436.27;1721888;83;25898;-90
2022/10/04 08:00:21;;;;;;;9.93;3.42;;;;;;;10.26;83.23;97435.23;1721661;83;25745;-91
2022/10/04 08:03:11;;;;;;;8.43;3.40;;;;;;;10.27;82.84;97435.00;1722145;82;28187;-87
2022/10/04 08:05:42;;;;;;;8.33;3.25;;;;;;;10.29;82.74;97436.98;1721592;83;25929;-87
2022/10/04 08:08:32;;;;;;;6.70;2.95;;;;;;;10.33;82.87;97444.98;1722033;83;25721;-87
2022/10/04 08:11:29;;;;;;;11.80;4.17;;;;;;;10.39;82.66;97446.83;1721958;82;25745;-87
2022/10/04 08:14:32;;;;;;;10.00;2.90;;;;;;;10.49;82.60;97446.94;1722119;83;25716;-91
2022/10/04 08:17:19;;;;;;;8.73;2.98;;;;;;;10.56;82.43;97451.28;1722186;83;27370;-88
2022/10/04 08:20:23;;;;;;;7.70;3.00;;;;;;;10.66;81.98;97455.72;1721941;83;25824;-86
2022/10/04 08:23:17;;;;;;;7.03;3.20;;;;;;;10.79;82.05;97461.61;1722118;83;25938;-87
2022/10/04 08:26:04;;;;;;;6.95;2.80;;;;;;;10.88;81.34;97460.86;1721781;82;25813;-89
2022/10/04 08:32:28;;;;;;;8.98;3.08;;;;;;;10.99;80.84;97469.69;1721637;83;28359;-88
2022/10/04 08:35:19;;;;;;;9.53;2.83;;;;;;;10.96;80.50;97469.58;1721896;83;25649;-87
2022/10/04 08:38:12;;;;;;;6.83;2.80;;;;;;;10.96;80.24;97474.15;1721112;83;25714;-87
2022/10/04 08:41:23;;;;;;;5.87;2.47;;;;;;;10.97;80.17;97471.24;1720579;82;25749;-88
2022/10/04 08:44:22;;;;;;;10.28;2.70;;;;;;;10.94;80.01;97471.66;1687175;83;25746;-87
2022/10/04 08:47:21;;;;;;;10.30;2.83;;;;;;;10.93;79.56;97480.80;1720594;83;27565;-86
2022/10/04 08:50:10;;;;;;;6.80;2.08;;;;;;;10.94;79.50;97470.31;1720691;83;25726;-87
2022/10/04 08:53:03;;;;;;;7.00;2.30;;;;;;;10.92;79.04;97477.78;1720757;83;25840;-86
2022/10/04 08:56:07;;;;;;;5.85;1.82;;;;;;;10.88;78.87;97476.54;1720788;83;25767;-89
2022/10/04 08:58:55;;;;;;;3.98;1.75;;;;;;;10.87;78.73;97478.13;1720623;83;25860;-86
2022/10/04 09:01:59;;;;;;;6.87;2.55;;;;;;;10.86;78.57;97485.92;1720707;83;27347;-86
2022/10/04 09:04:42;;;;;;;8.43;2.42;;;;;;;10.80;78.29;97492.98;1720387;83;25756;-87
2022/10/04 09:07:20;;;;;;;4.72;2.22;;;;;;;10.74;78.16;97497.36;1695241;82;25341;-85
2022/10/04 09:10:13;;;;;;;8.65;2.40;;;;;;;10.69;78.26;97499.85;1663846;83;25766;-87
2022/10/04 09:13:06;;;;;;;3.47;2.25;;;;;;;10.72;78.33;97503.48;1720971;83;25879;-86
2022/10/04 09:16:10;;;;;;;6.95;2.25;;;;;;;10.79;78.55;97507.52;1719902;83;28022;-86
2022/10/04 09:18:58;;;;;;;5.80;2.10;;;;;;;10.86;78.42;97503.47;1721392;83;25358;-85
2022/10/04 09:21:55;;;;;;;7.50;2.27;;;;;;;10.94;78.38;97506.77;1720107;83;26021;-85
2022/10/04 09:24:45;;;;;;;6.40;3.02;;;;;;;10.97;78.12;97509.05;1721379;83;25685;-86
2022/10/04 09:27:46;;;;;;;10.20;2.45;;;;;;;11.05;77.96;97514.22;1719298;82;26333;-84
2022/10/04 09:30:23;;;;;;;6.45;2.52;;;;;;;11.04;78.18;97515.26;1721260;82;27620;-86
2022/10/04 09:33:31;;;;;;;6.65;2.67;;;;;;;11.06;77.91;97518.58;1721214;83;25761;-86
2022/10/04 09:36:51;;;;;;;7.35;2.42;;;;;;;11.08;77.84;97520.56;1721505;83;25268;-86
2022/10/04 09:39:41;;;;;;;8.45;2.70;;;;;;;11.09;77.66;97517.34;1721237;83;26550;-86
2022/10/04 09:42:25;;;;;;;6.17;2.50;;;;;;;11.13;77.57;97523.95;1721519;83;25735;-86
2022/10/04 09:45:23;;;;;;;6.97;2.62;;;;;;;11.13;77.36;97518.03;1721086;83;27546;-86
2022/10/04 09:48:24;;;;;;;8.30;3.52;;;;;;;11.10;77.61;97523.88;1721466;83;25777;-85
2022/10/04 09:51:23;;;;;;;6.45;2.50;;;;;;;11.12;77.58;97524.47;1721677;83;25804;-85
2022/10/04 09:54:10;;;;;;;9.75;3.62;;;;;;;11.10;77.64;97526.59;1721556;83;26493;-86
2022/10/04 09:57:14;;;;;;;6.87;3.00;;;;;;;11.07;77.54;97535.62;1721639;83;25691;-86
2022/10/04 10:00:01;;;;;;;8.15;3.10;;;;;;;11.05;77.65;97530.42;1721318;83;27401;-86
2022/10/04 10:03:08;;;;;;;8.38;3.20;;;;;;;11.06;78.06;97537.49;1721221;83;25271;-86
2022/10/04 10:05:49;;;;;;;9.10;3.42;;;;;;;11.09;77.87;97542.48;1721797;83;25802;-86
2022/10/04 10:08:38;;;;;;;8.83;3.58;;;;;;;11.19;77.82;97542.03;1721706;83;25741;-85
2022/10/04 10:14:30;;;;;;;;;;;;;;;11.32;77.58;97547.92;1724036;83;28227;-85
2022/10/04 10:17:09;;;;;;;7.42;3.08;;;;;;;11.34;77.06;97556.66;1721539;83;25814;-86
2022/10/04 10:20:02;;;;;;;7.03;3.08;;;;;;;11.38;77.17;97554.65;1721589;83;25769;-87
2022/10/04 10:22:48;;;;;;;9.00;3.17;;;;;;;11.49;77.13;97558.56;1721689;83;26484;-87
2022/10/04 10:25:41;;;;;;;7.85;3.22;;;;;;;11.61;77.36;97550.09;1704908;83;25411;-86
2022/10/04 10:28:48;;;;;;;6.33;2.52;;;;;;;11.80;77.27;97558.69;1647634;85;28295;-86
2022/10/04 10:32:09;;;;;;;5.03;2.47;;;;;;;11.87;76.75;97556.77;1646965;87;25741;-85
2022/10/04 10:35:07;;;;;;;5.17;2.30;;;;;;;11.87;76.77;97561.34;1646798;87;25967;-85
2022/10/04 10:37:59;;;;;;;10.32;2.65;;;;;;;11.88;76.31;97568.42;1647062;86;26494;-85
2022/10/04 10:41:05;;;;;;;5.53;2.40;;;;;;;11.88;76.19;97569.25;1647056;87;25934;-85
2022/10/04 10:43:45;;;;;;;7.42;2.58;;;;;;;11.93;76.21;97564.56;1646767;87;28335;-85
2022/10/04 10:47:02;;;;;;;6.60;2.25;;;;;;;12.02;76.09;97569.19;1646804;87;25850;-85
2022/10/04 10:49:39;;;;;;;9.43;2.70;;;;;;;12.10;75.68;97568.92;1646601;87;25985;-85
2022/10/04 10:52:44;;;;;;;7.65;2.98;;;;;;;12.15;75.26;97569.11;1646841;87;25888;-86
2022/10/04 10:55:50;;;;;;;3.87;2.05;;;;;;;12.20;74.94;97570.63;1645684;87;25925;-87
2022/10/04 10:59:01;;;;;;;7.33;2.58;;;;;;;12.31;74.60;97575.89;1646816;86;27467;-86
2022/10/04 11:01:41;;;;;;;4.03;2.00;;;;;;;12.47;74.37;97575.34;1646726;86;25807;-87
2022/10/04 11:04:50;;;;;;;5.05;1.77;;;;;;;12.61;73.91;97575.04;1646824;87;25926;-86
2022/10/04 11:07:49;;;;;;;2.22;1.70;;;;;;;12.70;73.46;97567.98;1692827;84;26408;-86
2022/10/04 11:10:45;;;;;;;5.47;2.02;;;;;;;12.73;73.62;97572.45;1693065;84;25697;-86
2022/10/04 11:13:37;;;;;;;4.70;1.70;;;;;;;12.73;73.49;97566.20;1693018;84;27366;-86
2022/10/04 11:16:34;;;;;;;4.40;1.90;;;;;;;12.79;73.25;97568.04;1692874;84;25814;-84
2022/10/04 11:19:35;;;;;;;5.53;1.70;;;;;;;12.86;73.38;97571.50;1692924;84;25847;-86
2022/10/04 11:22:29;;;;;;;4.58;1.87;;;;;;;13.03;72.75;97563.66;1693002;84;25739;-86
2022/10/04 11:25:10;;;;;;;2.90;1.57;;;;;;;13.25;72.36;97568.46;1692250;84;25721;-86
2022/10/04 11:28:06;;;;;;;3.65;1.82;;;;;;;13.38;71.97;97573.45;1709599;83;27361;-85
2022/10/04 11:31:02;;;;;;;3.52;1.95;;;;;;;13.40;71.73;97572.17;1721033;83;25801;-85
2022/10/04 11:33:47;;;;;;;4.58;1.80;;;;;;;13.42;71.68;97578.70;1720118;83;25752;-85
2022/10/04 11:36:25;;;;;;;6.33;2.60;;;;;;;13.37;71.17;97573.14;1719385;83;25755;-84
2022/10/04 11:39:02;;;;;;;6.80;2.25;;;;;;;13.32;71.26;97579.22;1721636;83;25781;-86
2022/10/04 11:41:55;;;;;;;8.38;2.40;;;;;;;13.22;70.92;97577.03;1721564;83;27279;-86
2022/10/04 11:44:40;;;;;;;7.55;2.42;;;;;;;13.20;71.15;97579.13;1721483;83;25822;-86
2022/10/04 11:47:44;;;;;;;6.53;2.90;;;;;;;13.21;71.02;97575.38;1721094;83;26292;-86
2022/10/04 11:50:31;;;;;;;6.95;2.12;;;;;;;13.23;71.46;97578.70;1721439;83;26034;-85
2022/10/04 11:53:38;;;;;;;7.08;2.40;;;;;;;13.29;71.16;97582.38;1720854;83;25721;-86
2022/10/04 11:56:25;;;;;;;8.58;2.33;;;;;;;13.44;71.31;97583.38;1721486;83;27354;-86
2022/10/04 11:59:26;;;;;;;4.08;2.20;;;;;;;13.49;71.01;97583.02;1720598;83;26079;-87
2022/10/04 12:02:31;;;;;;;6.80;2.27;;;;;;;13.63;71.22;97589.95;1721397;83;25694;-87
2022/10/04 12:05:24;;;;;;;6.20;2.15;;;;;;;13.86;70.40;97587.08;1721490;83;25810;-86
2022/10/04 12:08:24;;;;;;;5.12;2.10;;;;;;;13.89;70.23;97584.71;1718339;83;25658;-86
2022/10/04 12:11:05;;;;;;;7.47;2.22;;;;;;;14.08;70.11;97584.70;1708817;83;27464;-89
2022/10/04 12:14:03;;;;;;;4.75;1.95;;;;;;;14.21;69.80;97588.59;1721494;83;25278;-86
2022/10/04 12:17:20;;;;;;;5.67;2.37;;;;;;;14.14;69.25;97595.98;1720417;83;25753;-86
2022/10/04 12:20:18;;;;;;;4.65;1.95;;;;;;;14.02;69.20;97599.47;1721355;83;25718;-87
2022/10/04 12:23:15;;;;;;;5.47;2.10;;;;;;;13.96;69.05;97599.05;1721638;83;25811;-83
2022/10/04 12:25:53;;;;;;;5.37;2.05;;;;;;;13.97;68.98;97604.77;1724557;82;27343;-87
2022/10/04 12:28:46;;;;;;;6.08;2.25;;;;;;;13.90;68.89;97601.30;1734015;82;25786;-86
2022/10/04 12:31:34;;;;;;;8.53;2.17;;;;;;;13.87;68.54;97601.77;1745496;81;26253;-87
2022/10/04 12:34:35;;;;;;;4.25;1.98;;;;;;;13.85;68.78;97603.05;1745041;81;25825;-87
2022/10/04 12:37:25;;;;;;;5.78;2.22;;;;;;;13.74;68.41;97597.86;1745011;82;25682;-87
2022/10/04 12:40:21;;;;;;;4.90;2.10;;;;;;;13.65;68.38;97599.20;1744569;81;28271;-87
2022/10/04 12:43:07;;;;;;;3.27;1.98;;;;;;;13.58;68.33;97594.39;1744908;81;26449;-87
2022/10/04 12:46:02;;;;;;;3.67;1.75;;;;;;;13.63;68.62;97594.55;1737733;82;25808;-87
2022/10/04 12:49:04;;;;;;;4.28;1.70;;;;;;;13.74;68.56;97595.15;1745095;81;26162;-86
2022/10/04 12:52:02;;;;;;;3.57;1.40;;;;;;;13.93;68.13;97600.84;1745171;81;25839;-84
2022/10/04 12:54:43;;;;;;;4.67;1.67;;;;;;;14.19;67.77;97597.49;1745241;81;28166;-86
2022/10/04 12:57:46;;;;;;;6.62;2.05;;;;;;;14.28;67.09;97601.01;1744628;81;25295;-83
2022/10/04 13:00:21;;;;;;;3.05;1.80;;;;;;;14.26;66.99;97605.01;1745514;82;25753;-85
2022/10/04 13:03:29;;;;;;;4.58;1.72;;;;;;;14.27;67.08;97613.45;1745396;82;25716;-85
2022/10/04 13:06:22;;;;;;;5.97;1.82;;;;;;;14.27;67.25;97612.92;1745433;81;25693;-85
2022/10/04 13:09:20;;;;;;;4.85;2.10;;;;;;;14.34;67.18;97615.56;1744798;81;28179;-84